createdAt,value
2018-06-28T00:00:47.568Z,3.80
2018-06-28T00:03:16.128Z,4.10
2018-06-28T00:05:44.336Z,3.90
2018-06-28T00:08:12.732Z,5.83
2018-06-28T00:10:41.529Z,5.07
2018-06-28T00:13:09.965Z,5.43
2018-06-28T00:15:38.552Z,4.77
2018-06-28T00:18:06.960Z,7.03
2018-06-28T00:20:35.413Z,7.20
2018-06-28T00:23:04.695Z,5.57
2018-06-28T00:25:32.931Z,6.87
2018-06-28T00:28:01.327Z,5.10
2018-06-28T00:30:29.827Z,5.83
2018-06-28T00:33:02.539Z,5.23
2018-06-28T00:35:33.525Z,6.77
2018-06-28T00:38:01.902Z,5.67
2018-06-28T00:40:30.270Z,5.43
2018-06-28T00:42:58.782Z,5.77
2018-06-28T00:45:29.897Z,6.50
2018-06-28T00:48:10.816Z,6.97
2018-06-28T00:50:39.354Z,6.33
2018-06-28T00:53:07.721Z,6.30
2018-06-28T00:55:36.176Z,5.93
2018-06-28T00:58:04.525Z,5.83
2018-06-28T01:00:32.856Z,8.73
2018-06-28T01:03:01.049Z,5.90
2018-06-28T01:05:29.328Z,6.50
2018-06-28T01:07:57.605Z,8.10
2018-06-28T01:10:25.900Z,7.80
2018-06-28T01:12:54.316Z,6.73
2018-06-28T01:15:22.567Z,8.53
2018-06-28T01:17:50.903Z,8.87
2018-06-28T01:20:19.140Z,8.10
2018-06-28T01:22:47.544Z,6.93
2018-06-28T01:25:15.902Z,7.87
2018-06-28T01:27:44.232Z,7.07
2018-06-28T01:30:12.561Z,8.83
2018-06-28T01:32:40.976Z,7.03
2018-06-28T01:35:09.337Z,8.30
2018-06-28T01:37:37.605Z,9.10
2018-06-28T01:40:05.895Z,8.57
2018-06-28T01:42:39.666Z,7.43
2018-06-28T01:45:07.908Z,8.17
2018-06-28T01:47:36.314Z,7.73
2018-06-28T01:50:04.697Z,8.30
2018-06-28T01:52:33.060Z,8.07
2018-06-28T01:55:01.250Z,8.33
2018-06-28T01:57:29.470Z,7.60
2018-06-28T01:59:57.817Z,8.97
2018-06-28T02:02:26.151Z,9.23
2018-06-28T02:04:54.559Z,9.50
2018-06-28T02:07:22.934Z,8.43
2018-06-28T02:09:51.263Z,11.03
2018-06-28T02:12:19.765Z,9.37
2018-06-28T02:14:48.034Z,9.00
2018-06-28T02:17:16.487Z,9.47
2018-06-28T02:19:44.820Z,8.03
2018-06-28T02:22:13.197Z,6.53
2018-06-28T02:24:41.623Z,8.17
2018-06-28T02:27:09.827Z,8.63
2018-06-28T02:29:38.173Z,8.20
2018-06-28T02:32:06.457Z,7.40
2018-06-28T02:34:35.052Z,6.10
2018-06-28T02:37:03.394Z,6.70
2018-06-28T02:39:31.725Z,8.10
2018-06-28T02:41:59.995Z,7.47
2018-06-28T02:44:28.411Z,8.67
2018-06-28T02:46:56.740Z,8.53
2018-06-28T02:49:25.098Z,9.20
2018-06-28T02:51:53.371Z,7.80
2018-06-28T02:54:21.611Z,6.80
2018-06-28T02:56:49.945Z,8.73
2018-06-28T02:59:18.189Z,8.03
2018-06-28T03:01:46.601Z,7.20
2018-06-28T03:04:14.898Z,9.47
2018-06-28T03:06:43.154Z,8.27
2018-06-28T03:09:12.155Z,8.03
2018-06-28T03:11:40.435Z,9.10
2018-06-28T03:14:08.867Z,8.00
2018-06-28T03:16:37.166Z,8.20
2018-06-28T03:19:05.512Z,9.43
2018-06-28T03:21:33.896Z,7.90
2018-06-28T03:24:03.012Z,8.37
2018-06-28T03:26:31.350Z,11.00
2018-06-28T03:29:00.616Z,9.70
2018-06-28T03:31:28.952Z,9.10
2018-06-28T03:33:57.356Z,9.70
2018-06-28T03:36:25.734Z,7.90
2018-06-28T03:38:54.075Z,7.80
2018-06-28T03:41:22.597Z,10.53
2018-06-28T03:43:50.839Z,9.10
2018-06-28T03:46:19.105Z,9.40
2018-06-28T03:48:47.479Z,10.20
2018-06-28T03:51:15.811Z,7.90
2018-06-28T03:53:44.185Z,10.70
2018-06-28T03:56:12.495Z,10.60
2018-06-28T03:58:40.772Z,9.53
2018-06-28T04:01:09.051Z,8.80
2018-06-28T04:03:37.367Z,13.33
2018-06-28T04:06:06.581Z,8.43
2018-06-28T04:08:34.946Z,9.60
2018-06-28T04:11:03.298Z,8.70
2018-06-28T04:13:31.715Z,9.53
2018-06-28T04:15:59.974Z,9.53
2018-06-28T04:18:28.398Z,10.30
2018-06-28T04:20:56.890Z,9.30
2018-06-28T04:23:25.232Z,10.00
2018-06-28T04:25:53.612Z,9.63
2018-06-28T04:28:21.911Z,8.60
2018-06-28T04:30:50.291Z,8.03
2018-06-28T04:33:19.410Z,6.93
2018-06-28T04:35:47.995Z,7.60
2018-06-28T04:38:16.783Z,9.43
2018-06-28T04:40:45.934Z,9.80
2018-06-28T04:43:14.322Z,9.27
2018-06-28T04:45:42.747Z,9.17
2018-06-28T04:48:11.115Z,7.20
2018-06-28T04:50:39.414Z,9.00
2018-06-28T04:53:07.840Z,5.17
2018-06-28T04:55:39.238Z,6.40
2018-06-28T04:58:07.591Z,6.17
2018-06-28T05:00:36.058Z,9.03
2018-06-28T05:03:04.312Z,6.33
2018-06-28T05:05:32.707Z,10.40
2018-06-28T05:08:01.115Z,7.40
2018-06-28T05:10:29.487Z,6.63
2018-06-28T05:12:57.890Z,8.33
2018-06-28T05:15:26.177Z,8.60
2018-06-28T05:17:54.551Z,8.53
2018-06-28T05:20:22.894Z,8.07
2018-06-28T05:22:51.361Z,11.10
2018-06-28T05:25:19.787Z,8.13
2018-06-28T05:27:48.214Z,5.70
2018-06-28T05:30:16.573Z,7.70
2018-06-28T05:32:45.908Z,7.80
2018-06-28T05:35:14.332Z,8.27
2018-06-28T05:37:42.636Z,8.67
2018-06-28T05:40:10.884Z,8.00
2018-06-28T05:42:39.170Z,5.77
2018-06-28T05:45:07.552Z,6.80
2018-06-28T05:47:35.934Z,8.03
2018-06-28T05:50:04.313Z,7.90
2018-06-28T05:52:32.654Z,7.53
2018-06-28T05:55:02.037Z,7.80
2018-06-28T05:57:30.448Z,7.67
2018-06-28T05:59:58.893Z,6.20
2018-06-28T06:02:27.187Z,6.37
2018-06-28T06:04:55.479Z,6.53
2018-06-28T06:07:23.867Z,7.97
2018-06-28T06:09:53.062Z,4.73
2018-06-28T06:12:21.326Z,4.90
2018-06-28T06:14:49.695Z,4.63
2018-06-28T06:17:18.094Z,5.03
2018-06-28T06:19:46.807Z,5.63
2018-06-28T06:22:15.192Z,5.30
2018-06-28T06:24:43.552Z,6.33
2018-06-28T06:27:11.985Z,3.60
2018-06-28T06:29:40.309Z,4.90
2018-06-28T06:32:08.741Z,4.87
2018-06-28T06:34:37.011Z,4.43
2018-06-28T06:37:05.303Z,3.90
2018-06-28T06:39:33.712Z,4.73
2018-06-28T06:42:02.144Z,5.00
2018-06-28T06:44:30.539Z,4.70
2018-06-28T06:46:58.866Z,5.40
2018-06-28T06:49:27.162Z,4.20
2018-06-28T06:51:55.618Z,6.17
2018-06-28T06:54:24.038Z,3.93
2018-06-28T06:56:52.321Z,5.83
2018-06-28T06:59:21.637Z,5.20
2018-06-28T07:01:49.907Z,4.73
2018-06-28T07:04:18.340Z,3.10
2018-06-28T07:06:46.642Z,4.73
2018-06-28T07:09:14.962Z,4.20
2018-06-28T07:11:43.415Z,5.20
2018-06-28T07:14:12.100Z,3.43
2018-06-28T07:16:40.464Z,3.17
2018-06-28T07:19:09.016Z,3.80
2018-06-28T07:21:37.416Z,4.20
2018-06-28T07:24:05.694Z,3.47
2018-06-28T07:26:34.207Z,4.60
2018-06-28T07:29:02.546Z,3.17
2018-06-28T07:31:30.867Z,2.83
2018-06-28T07:33:59.201Z,3.90
2018-06-28T07:36:27.608Z,3.17
2018-06-28T07:38:55.945Z,3.07
2018-06-28T07:41:24.396Z,3.40
2018-06-28T07:43:52.745Z,3.40
2018-06-28T07:46:21.128Z,3.97
2018-06-28T07:48:49.421Z,3.80
2018-06-28T07:51:18.263Z,3.47
2018-06-28T07:53:46.569Z,2.47
2018-06-28T07:56:14.947Z,2.93
2018-06-28T07:58:43.687Z,3.60
2018-06-28T08:01:12.259Z,3.40
2018-06-28T08:03:40.547Z,3.30
2018-06-28T08:06:08.867Z,3.10
2018-06-28T08:08:37.199Z,3.30
2018-06-28T08:11:05.480Z,3.93
2018-06-28T08:13:34.203Z,3.13
2018-06-28T08:16:02.557Z,2.60
2018-06-28T08:18:30.906Z,2.97
2018-06-28T08:20:59.305Z,2.80
2018-06-28T08:23:27.623Z,2.70
2018-06-28T08:25:56.104Z,3.50
2018-06-28T08:28:24.481Z,3.37
2018-06-28T08:30:53.143Z,2.90
2018-06-28T08:33:21.640Z,3.13
2018-06-28T08:35:50.824Z,2.33
2018-06-28T08:38:19.264Z,2.57
2018-06-28T08:40:47.546Z,2.70
2018-06-28T08:43:15.917Z,2.70
2018-06-28T08:45:44.317Z,2.43
2018-06-28T08:48:13.830Z,2.73
2018-06-28T08:50:42.051Z,2.93
2018-06-28T08:53:10.385Z,2.67
2018-06-28T08:55:38.616Z,2.47
2018-06-28T08:58:18.084Z,2.80
2018-06-28T09:00:46.455Z,2.77
2018-06-28T09:03:14.756Z,2.67
2018-06-28T09:05:43.084Z,2.57
2018-06-28T09:08:11.436Z,2.57
2018-06-28T09:10:39.658Z,3.23
2018-06-28T09:13:07.981Z,2.20
2018-06-28T09:15:36.241Z,2.60
2018-06-28T09:18:11.638Z,3.10
2018-06-28T09:20:40.330Z,2.63
2018-06-28T09:23:08.689Z,1.93
2018-06-28T09:25:36.917Z,2.73
2018-06-28T09:28:07.338Z,2.40
2018-06-28T09:30:35.618Z,3.30
2018-06-28T09:33:03.995Z,3.00
2018-06-28T09:35:32.227Z,2.73
2018-06-28T09:38:02.755Z,3.17
2018-06-28T09:40:30.988Z,2.47
2018-06-28T09:42:59.251Z,2.90
2018-06-28T09:45:27.525Z,2.80
2018-06-28T09:47:55.902Z,1.90
2018-06-28T09:50:24.245Z,2.30
2018-06-28T09:52:52.650Z,2.90
2018-06-28T09:55:20.937Z,3.50
2018-06-28T09:57:49.366Z,3.70
2018-06-28T10:00:22.788Z,3.77
2018-06-28T10:02:51.077Z,2.40
2018-06-28T10:05:19.386Z,3.37
2018-06-28T10:07:48.851Z,2.43
2018-06-28T10:10:17.240Z,2.03
2018-06-28T10:12:45.493Z,3.20
2018-06-28T10:15:13.816Z,2.13
2018-06-28T10:17:43.219Z,3.20
2018-06-28T10:20:11.556Z,2.93
2018-06-28T10:22:39.819Z,2.20
2018-06-28T10:25:08.086Z,3.80
2018-06-28T10:27:36.363Z,3.70
2018-06-28T10:30:05.025Z,2.87
2018-06-28T10:32:33.367Z,3.93
2018-06-28T10:35:02.665Z,3.40
2018-06-28T10:37:31.114Z,6.33
2018-06-28T10:40:12.467Z,4.73
2018-06-28T10:42:40.799Z,4.53
2018-06-28T10:45:09.141Z,4.40
2018-06-28T10:47:37.475Z,2.70
2018-06-28T10:50:05.722Z,3.17
2018-06-28T10:52:34.041Z,3.07
2018-06-28T10:55:02.335Z,2.50
2018-06-28T10:57:30.617Z,4.03
2018-06-28T11:00:00.114Z,2.77
2018-06-28T11:02:28.511Z,3.20
2018-06-28T11:04:56.862Z,2.30
2018-06-28T11:07:25.214Z,2.97
2018-06-28T11:09:59.163Z,1.97
2018-06-28T11:12:27.446Z,2.60
2018-06-28T11:14:55.705Z,2.83
2018-06-28T11:17:23.976Z,6.80
2018-06-28T11:19:53.587Z,6.77
2018-06-28T11:22:21.942Z,7.17
2018-06-28T11:24:50.203Z,3.80
2018-06-28T11:27:18.529Z,4.47
2018-06-28T11:29:46.822Z,3.43
2018-06-28T11:32:15.135Z,6.73
2018-06-28T11:34:43.443Z,4.13
2018-06-28T11:37:11.787Z,3.30
2018-06-28T11:39:40.151Z,2.87
2018-06-28T11:42:08.425Z,3.87
2018-06-28T11:44:36.723Z,2.60
2018-06-28T11:47:05.119Z,2.23
2018-06-28T11:49:33.530Z,2.40
2018-06-28T11:52:01.767Z,3.23
2018-06-28T11:54:30.051Z,2.53
2018-06-28T11:56:59.338Z,3.80
2018-06-28T11:59:27.660Z,5.10
2018-06-28T12:01:56.028Z,4.03
2018-06-28T12:04:24.264Z,4.33
2018-06-28T12:06:52.631Z,4.00
2018-06-28T12:09:21.093Z,2.77
2018-06-28T12:11:49.367Z,4.70
2018-06-28T12:14:17.603Z,3.30
2018-06-28T12:16:45.889Z,4.43
2018-06-28T12:19:14.188Z,2.43
2018-06-28T12:21:42.483Z,4.10
2018-06-28T12:24:10.773Z,4.40
2018-06-28T12:26:39.056Z,4.80
2018-06-28T12:29:07.385Z,2.87
2018-06-28T12:31:35.702Z,2.67
2018-06-28T12:34:04.027Z,3.80
2018-06-28T12:36:32.369Z,4.10
2018-06-28T12:39:00.684Z,3.30
2018-06-28T12:41:28.987Z,3.03
2018-06-28T12:43:57.302Z,3.37
2018-06-28T12:47:33.200Z,2.47
2018-06-28T12:50:01.571Z,3.67
2018-06-28T12:52:35.439Z,3.60
2018-06-28T12:55:03.853Z,3.22
2018-06-28T12:57:32.172Z,3.75
2018-06-28T13:00:00.632Z,4.67
2018-06-28T13:02:28.946Z,3.20
2018-06-28T13:04:57.215Z,3.83
2018-06-28T13:07:25.506Z,2.83
2018-06-28T13:09:53.830Z,3.20
2018-06-28T13:12:22.206Z,3.70
2018-06-28T13:14:50.476Z,3.92
2018-06-28T13:17:18.783Z,3.12
2018-06-28T13:19:47.037Z,4.17
2018-06-28T13:22:15.396Z,6.85
2018-06-28T13:24:44.400Z,4.95
2018-06-28T13:27:12.675Z,4.33
2018-06-28T13:29:41.031Z,4.35
2018-06-28T13:32:09.369Z,5.15
2018-06-28T13:34:37.670Z,3.70
2018-06-28T13:37:06.013Z,3.40
2018-06-28T13:39:34.257Z,4.87
2018-06-28T13:42:03.615Z,3.50
2018-06-28T13:44:31.844Z,4.35
2018-06-28T13:47:00.079Z,3.42
2018-06-28T13:49:28.407Z,3.30
2018-06-28T13:51:56.743Z,3.80
2018-06-28T13:54:25.070Z,3.05
2018-06-28T13:56:53.374Z,4.12
2018-06-28T13:59:21.720Z,4.78
2018-06-28T14:01:50.117Z,12.78
2018-06-28T14:04:18.326Z,3.22
2018-06-28T14:06:46.615Z,3.17
2018-06-28T14:09:14.960Z,3.22
2018-06-28T14:11:43.834Z,3.50
2018-06-28T14:14:12.125Z,3.47
2018-06-28T14:16:40.459Z,4.42
2018-06-28T14:19:08.714Z,4.05
2018-06-28T14:21:37.189Z,3.52
2018-06-28T14:24:06.025Z,3.60
2018-06-28T14:26:34.610Z,3.52
2018-06-28T14:29:02.890Z,3.75
2018-06-28T14:31:31.284Z,3.98
2018-06-28T14:33:59.582Z,3.62
2018-06-28T14:36:27.898Z,3.40
2018-06-28T14:38:56.151Z,3.77
2018-06-28T14:41:24.580Z,3.30
2018-06-28T14:43:52.906Z,3.60
2018-06-28T14:46:21.228Z,4.30
2018-06-28T14:48:49.511Z,3.85
2018-06-28T14:51:17.730Z,3.80
2018-06-28T14:53:46.040Z,3.62
2018-06-28T14:56:14.318Z,3.15
2018-06-28T14:58:42.677Z,2.92
2018-06-28T15:01:11.054Z,3.98
2018-06-28T15:03:39.385Z,3.22
2018-06-28T15:06:07.683Z,3.30
2018-06-28T15:08:35.956Z,3.75
2018-06-28T15:11:04.301Z,3.27
2018-06-28T15:13:32.659Z,3.85
2018-06-28T15:16:01.026Z,3.87
2018-06-28T15:18:29.411Z,3.47
2018-06-28T15:20:57.696Z,3.02
2018-06-28T15:23:26.336Z,2.98
2018-06-28T15:25:54.614Z,2.90
2018-06-28T15:28:22.878Z,2.85
2018-06-28T15:30:51.262Z,3.15
2018-06-28T15:33:19.772Z,3.15
2018-06-28T15:35:48.019Z,3.12
2018-06-28T15:38:16.391Z,2.80
2018-06-28T15:40:44.690Z,2.80
2018-06-28T15:43:13.097Z,3.10
2018-06-28T15:45:41.428Z,3.27
2018-06-28T15:48:09.802Z,2.90
2018-06-28T15:50:38.060Z,3.47
2018-06-28T15:53:06.419Z,3.00
2018-06-28T15:55:34.766Z,2.90
2018-06-28T15:58:03.095Z,3.05
2018-06-28T16:00:31.408Z,3.10
2018-06-28T16:02:59.677Z,3.42
2018-06-28T16:05:27.917Z,3.37
2018-06-28T16:07:56.194Z,3.33
2018-06-28T16:10:24.533Z,3.00
2018-06-28T16:12:52.860Z,3.05
2018-06-28T16:15:21.188Z,2.87
2018-06-28T16:17:49.515Z,2.40
2018-06-28T16:20:17.744Z,3.00
2018-06-28T16:22:46.058Z,2.72
2018-06-28T16:25:14.523Z,3.58
2018-06-28T16:27:42.759Z,3.27
2018-06-28T16:30:11.142Z,2.75
2018-06-28T16:32:39.510Z,3.33
2018-06-28T16:35:07.876Z,3.50
2018-06-28T16:37:36.263Z,3.00
2018-06-28T16:40:04.734Z,3.45
2018-06-28T16:42:32.978Z,3.02
2018-06-28T16:45:01.341Z,3.08
2018-06-28T16:47:29.626Z,3.10
2018-06-28T16:49:57.926Z,2.72
2018-06-28T16:52:26.216Z,2.67
2018-06-28T16:54:54.554Z,2.90
2018-06-28T16:57:22.905Z,3.30
2018-06-28T16:59:51.271Z,2.72
2018-06-28T17:02:19.653Z,2.87
2018-06-28T17:04:48.003Z,2.80
2018-06-28T17:07:16.327Z,2.80
2018-06-28T17:09:45.657Z,2.90
2018-06-28T17:12:14.099Z,2.90
2018-06-28T17:14:42.408Z,2.80
2018-06-28T17:17:10.810Z,2.50
2018-06-28T17:19:39.224Z,2.77
2018-06-28T17:22:07.684Z,2.50
2018-06-28T17:24:36.091Z,2.40
2018-06-28T17:27:04.556Z,3.03
2018-06-28T17:29:32.834Z,2.13
2018-06-28T17:32:01.137Z,2.23
2018-06-28T17:34:29.470Z,2.30
2018-06-28T17:36:57.865Z,2.40
2018-06-28T17:39:26.186Z,2.70
2018-06-28T17:41:54.606Z,2.43
2018-06-28T17:44:22.905Z,2.40
2018-06-28T17:46:51.268Z,2.30
2018-06-28T17:49:20.566Z,2.43
2018-06-28T17:51:48.880Z,2.57
2018-06-28T17:54:17.259Z,2.87
2018-06-28T17:56:45.524Z,2.90
2018-06-28T17:59:13.779Z,2.90
2018-06-28T18:01:42.120Z,2.27
2018-06-28T18:04:10.474Z,2.70
2018-06-28T18:06:38.806Z,2.00
2018-06-28T18:09:08.128Z,2.30
2018-06-28T18:11:36.474Z,2.03
2018-06-28T18:14:04.925Z,2.40
2018-06-28T18:16:33.158Z,2.43
2018-06-28T18:19:01.465Z,2.30
2018-06-28T18:21:29.855Z,2.43
2018-06-28T18:23:58.195Z,2.10
2018-06-28T18:26:27.384Z,2.70
2018-06-28T18:28:55.665Z,3.03
2018-06-28T18:31:24.037Z,2.77
2018-06-28T18:33:52.442Z,2.57
2018-06-28T18:36:20.806Z,2.97
2018-06-28T18:38:49.182Z,2.50
2018-06-28T18:41:17.592Z,2.70
2018-06-28T18:43:45.890Z,2.73
2018-06-28T18:46:14.273Z,2.40
2018-06-28T18:48:42.612Z,2.50
2018-06-28T18:51:10.939Z,2.10
2018-06-28T18:53:39.153Z,2.10
2018-06-28T18:56:07.458Z,2.60
2018-06-28T18:58:35.802Z,1.83
2018-06-28T19:01:04.169Z,2.40
2018-06-28T19:03:32.521Z,2.60
2018-06-28T19:06:00.868Z,2.53
2018-06-28T19:08:29.309Z,2.03
2018-06-28T19:10:58.224Z,2.03
2018-06-28T19:13:27.702Z,1.80
2018-06-28T19:16:01.454Z,1.93
2018-06-28T19:18:29.943Z,2.50
2018-06-28T19:21:03.808Z,1.57
2018-06-28T19:23:37.661Z,2.70
2018-06-28T19:26:05.955Z,1.60
2018-06-28T19:28:34.170Z,2.47
2018-06-28T19:32:06.797Z,1.87
2018-06-28T19:34:35.172Z,1.80
2018-06-28T19:37:03.411Z,1.70
2018-06-28T19:39:36.986Z,2.40
2018-06-28T19:42:10.741Z,1.30
2018-06-28T19:44:39.055Z,2.30
2018-06-28T19:47:07.444Z,2.33
2018-06-28T19:49:41.253Z,1.33
2018-06-28T19:52:14.894Z,1.50
2018-06-28T19:54:43.319Z,1.63
2018-06-28T19:57:11.683Z,1.63
2018-06-28T19:59:45.506Z,1.40
2018-06-28T20:02:19.274Z,1.60
2018-06-28T20:04:47.593Z,1.37
2018-06-28T20:07:15.890Z,1.53
2018-06-28T20:09:44.341Z,1.20
2018-06-28T20:12:18.137Z,1.90
2018-06-28T20:14:51.991Z,1.80
2018-06-28T20:17:25.686Z,0.90
2018-06-28T20:19:59.209Z,2.17
2018-06-28T20:22:27.572Z,1.37
2018-06-28T20:24:56.946Z,1.90
2018-06-28T20:27:30.717Z,1.37
2018-06-28T20:30:04.431Z,0.90
2018-06-28T20:32:38.187Z,1.50
2018-06-28T20:35:06.470Z,2.40
2018-06-28T20:37:34.744Z,2.27
2018-06-28T20:40:03.205Z,1.17
2018-06-28T20:42:31.426Z,1.20
2018-06-28T20:44:59.869Z,1.23
2018-06-28T20:47:28.266Z,1.40
2018-06-28T20:49:56.632Z,1.80
2018-06-28T20:52:24.949Z,1.30
2018-06-28T20:54:53.326Z,1.60
2018-06-28T20:57:22.693Z,1.53
2018-06-28T20:59:51.035Z,1.40
2018-06-28T21:02:19.384Z,1.87
2018-06-28T21:04:47.760Z,2.30
2018-06-28T21:07:16.075Z,1.90
2018-06-28T21:09:44.343Z,1.90
2018-06-28T21:12:12.696Z,1.10
2018-06-28T21:14:40.939Z,1.87
2018-06-28T21:17:09.232Z,1.37
2018-06-28T21:19:37.459Z,1.47
2018-06-28T21:22:05.768Z,1.73
2018-06-28T21:24:34.050Z,2.10
2018-06-28T21:27:02.393Z,1.43
2018-06-28T21:29:30.714Z,1.23
2018-06-28T21:31:59.067Z,1.37
2018-06-28T21:34:27.405Z,2.40
2018-06-28T21:36:55.805Z,1.77
2018-06-28T21:39:24.146Z,1.20
2018-06-28T21:41:52.517Z,1.30
2018-06-28T21:44:20.845Z,1.70
2018-06-28T21:46:50.045Z,1.33
2018-06-28T21:49:18.335Z,1.40
2018-06-28T21:51:47.555Z,2.70
2018-06-28T21:54:15.888Z,1.70
2018-06-28T21:56:44.136Z,2.00
2018-06-28T21:59:12.511Z,1.40
2018-06-28T22:01:54.343Z,1.80
2018-06-28T22:04:22.630Z,1.77
2018-06-28T22:06:51.186Z,1.83
2018-06-28T22:09:20.440Z,1.53
2018-06-28T22:11:48.876Z,2.20
2018-06-28T22:14:17.725Z,2.33
2018-06-28T22:16:46.008Z,1.50
2018-06-28T22:19:14.271Z,1.20
2018-06-28T22:21:42.469Z,1.33
2018-06-28T22:24:10.804Z,1.93
2018-06-28T22:26:39.087Z,1.60
2018-06-28T22:29:07.370Z,2.10
2018-06-28T22:31:35.635Z,1.67
2018-06-28T22:34:04.032Z,1.70
2018-06-28T22:36:32.357Z,1.53
2018-06-28T22:39:00.743Z,2.27
2018-06-28T22:41:29.016Z,2.73
2018-06-28T22:43:57.342Z,1.97
2018-06-28T22:46:25.674Z,1.43
2018-06-28T22:48:53.962Z,1.93
2018-06-28T22:51:22.179Z,1.40
2018-06-28T22:53:50.490Z,1.30
2018-06-28T22:56:19.876Z,1.63
2018-06-28T22:58:48.222Z,1.50
2018-06-28T23:01:16.550Z,2.80
2018-06-28T23:03:44.880Z,2.47
2018-06-28T23:06:13.134Z,2.10
2018-06-28T23:08:41.451Z,1.73
2018-06-28T23:11:09.744Z,1.57
2018-06-28T23:13:37.996Z,2.07
2018-06-28T23:16:06.860Z,1.77
2018-06-28T23:18:35.127Z,2.03
2018-06-28T23:21:03.528Z,1.70
2018-06-28T23:23:31.815Z,1.30
2018-06-28T23:26:00.162Z,2.10
2018-06-28T23:28:28.497Z,1.60
2018-06-28T23:30:56.850Z,2.87
2018-06-28T23:33:25.117Z,1.43
2018-06-28T23:35:53.434Z,1.07
2018-06-28T23:38:21.659Z,2.30
2018-06-28T23:40:49.956Z,1.67
2018-06-28T23:43:18.255Z,1.70
2018-06-28T23:45:46.487Z,1.37
2018-06-28T23:48:14.879Z,2.37
2018-06-28T23:50:43.184Z,1.60
2018-06-28T23:53:11.390Z,1.50
2018-06-28T23:55:39.812Z,1.93
2018-06-28T23:58:08.084Z,1.17
